createdAt,value
2019-01-16T00:00:49.747Z,8.70
2019-01-16T00:03:27.157Z,8.70
2019-01-16T00:06:16.763Z,8.70
2019-01-16T00:09:09.566Z,8.70
2019-01-16T00:11:59.255Z,8.70
2019-01-16T00:14:44.875Z,8.70
2019-01-16T00:17:32.004Z,8.70
2019-01-16T00:20:18.096Z,8.70
2019-01-16T00:23:08.027Z,8.70
2019-01-16T00:25:58.011Z,8.70
2019-01-16T00:28:43.736Z,8.70
2019-01-16T00:31:29.437Z,8.80
2019-01-16T00:34:14.980Z,8.80
2019-01-16T00:37:02.135Z,8.90
2019-01-16T00:39:58.269Z,8.80
2019-01-16T00:42:53.983Z,8.80
2019-01-16T00:45:36.038Z,8.80
2019-01-16T00:48:24.629Z,8.80
2019-01-16T00:51:10.484Z,8.70
2019-01-16T00:53:57.608Z,8.70
2019-01-16T00:56:41.569Z,8.70
2019-01-16T00:59:24.385Z,8.60
2019-01-16T01:02:07.084Z,8.60
2019-01-16T01:04:56.723Z,8.60
2019-01-16T01:07:43.840Z,8.80
2019-01-16T01:10:34.000Z,8.80
2019-01-16T01:13:09.804Z,8.80
2019-01-16T01:15:55.703Z,8.80
2019-01-16T01:18:54.732Z,8.80
2019-01-16T01:21:41.869Z,8.60
2019-01-16T01:24:27.392Z,8.50
2019-01-16T01:27:12.876Z,8.50
2019-01-16T01:30:03.471Z,8.50
2019-01-16T01:33:04.209Z,8.40
2019-01-16T01:35:49.358Z,8.40
2019-01-16T01:38:35.637Z,8.40
2019-01-16T01:41:30.806Z,8.30
2019-01-16T01:44:23.828Z,8.40
2019-01-16T01:47:03.208Z,8.40
2019-01-16T01:49:38.703Z,8.50
2019-01-16T01:52:24.463Z,8.50
2019-01-16T01:55:09.972Z,8.40
2019-01-16T01:57:48.251Z,8.60
2019-01-16T02:00:38.387Z,8.60
2019-01-16T02:03:31.276Z,8.50
2019-01-16T02:06:04.952Z,8.60
2019-01-16T02:09:04.133Z,8.60
2019-01-16T02:11:49.932Z,8.60
2019-01-16T02:14:45.336Z,8.60
2019-01-16T02:17:27.516Z,8.60
2019-01-16T02:20:07.827Z,8.40
2019-01-16T02:22:49.078Z,8.30
2019-01-16T02:25:54.472Z,8.20
2019-01-16T02:28:40.269Z,8.20
2019-01-16T02:31:27.364Z,8.20
2019-01-16T02:34:17.012Z,8.40
2019-01-16T02:37:06.938Z,8.30
2019-01-16T02:39:53.833Z,8.30
2019-01-16T02:42:49.637Z,8.40
2019-01-16T02:45:42.323Z,8.40
2019-01-16T02:48:28.144Z,8.50
2019-01-16T02:51:13.764Z,8.50
2019-01-16T02:53:59.247Z,8.50
2019-01-16T02:57:04.365Z,8.40
2019-01-16T02:59:50.288Z,8.20
2019-01-16T03:02:35.782Z,8.20
2019-01-16T03:05:29.727Z,8.20
2019-01-16T03:08:22.592Z,8.30
2019-01-16T03:10:59.699Z,8.20
2019-01-16T03:13:46.832Z,8.10
2019-01-16T03:16:42.525Z,7.90
2019-01-16T03:19:35.178Z,7.90
2019-01-16T03:22:20.460Z,7.90
2019-01-16T03:25:10.416Z,7.90
2019-01-16T03:28:09.279Z,7.80
2019-01-16T03:31:05.169Z,7.80
2019-01-16T03:33:42.377Z,7.80
2019-01-16T03:36:20.896Z,7.90
2019-01-16T03:38:56.339Z,8.00
2019-01-16T03:41:55.673Z,8.10
2019-01-16T03:44:31.795Z,8.10
2019-01-16T03:47:17.387Z,8.20
2019-01-16T03:49:57.908Z,8.10
2019-01-16T03:52:47.585Z,8.10
2019-01-16T03:55:36.892Z,8.10
2019-01-16T03:58:12.852Z,8.20
2019-01-16T04:00:58.347Z,8.30
2019-01-16T04:03:47.328Z,8.20
2019-01-16T04:06:26.583Z,8.20
2019-01-16T04:09:11.696Z,8.30
2019-01-16T04:11:57.600Z,8.30
2019-01-16T04:14:41.948Z,8.30
2019-01-16T04:17:33.606Z,8.30
2019-01-16T04:20:08.192Z,8.40
2019-01-16T04:22:54.592Z,8.30
2019-01-16T04:25:44.263Z,8.30
2019-01-16T04:28:17.004Z,8.40
2019-01-16T04:31:09.877Z,8.40
2019-01-16T04:33:55.391Z,8.40
2019-01-16T04:36:39.939Z,8.40
2019-01-16T04:39:39.182Z,8.40
2019-01-16T04:42:15.596Z,8.40
2019-01-16T04:45:11.345Z,8.30
2019-01-16T04:47:58.820Z,8.20
2019-01-16T04:50:44.989Z,8.20
2019-01-16T04:53:34.728Z,8.20
2019-01-16T04:56:20.412Z,8.00
2019-01-16T04:59:12.392Z,8.00
2019-01-16T05:02:01.241Z,8.00
2019-01-16T05:05:00.294Z,7.80
2019-01-16T05:07:47.405Z,7.70
2019-01-16T05:10:34.557Z,7.70
2019-01-16T05:13:30.548Z,7.70
2019-01-16T05:16:04.738Z,7.70
2019-01-16T05:18:45.353Z,7.70
2019-01-16T05:21:41.353Z,7.80
2019-01-16T05:24:37.256Z,7.70
2019-01-16T05:27:22.728Z,7.80
2019-01-16T05:30:21.677Z,7.70
2019-01-16T05:33:11.748Z,7.60
2019-01-16T05:36:02.109Z,7.60
2019-01-16T05:39:04.421Z,7.60
2019-01-16T05:41:54.796Z,7.60
2019-01-16T05:44:59.849Z,7.50
2019-01-16T05:47:49.608Z,7.50
2019-01-16T05:50:42.867Z,7.40
2019-01-16T05:53:28.729Z,7.40
2019-01-16T05:56:14.243Z,7.30
2019-01-16T05:58:57.276Z,7.30
2019-01-16T06:01:43.732Z,7.30
2019-01-16T06:04:48.565Z,7.40
2019-01-16T06:07:34.448Z,7.30
2019-01-16T06:10:13.430Z,7.40
2019-01-16T06:13:12.197Z,7.50
2019-01-16T06:15:54.288Z,7.60
2019-01-16T06:18:39.604Z,7.60
2019-01-16T06:21:44.706Z,7.60
2019-01-16T06:24:22.860Z,7.40
2019-01-16T06:27:03.259Z,7.20
2019-01-16T06:29:47.603Z,7.20
2019-01-16T06:32:40.844Z,7.20
2019-01-16T06:35:31.053Z,7.40
2019-01-16T06:38:26.896Z,7.50
2019-01-16T06:41:09.401Z,7.50
2019-01-16T06:43:54.943Z,7.40
2019-01-16T06:46:48.197Z,7.30
2019-01-16T06:49:37.812Z,7.30
2019-01-16T06:52:36.537Z,7.40
2019-01-16T06:55:22.549Z,7.30
2019-01-16T06:58:12.508Z,7.30
2019-01-16T07:00:57.308Z,7.30
2019-01-16T07:03:45.024Z,7.20
2019-01-16T07:06:30.512Z,7.20
2019-01-16T07:09:23.573Z,7.30
2019-01-16T07:12:05.416Z,7.30
2019-01-16T07:14:52.577Z,7.30
2019-01-16T07:17:35.319Z,7.20
2019-01-16T07:20:38.598Z,7.10
2019-01-16T07:23:15.383Z,7.00
2019-01-16T07:26:01.001Z,7.10
2019-01-16T07:28:57.004Z,7.00
2019-01-16T07:31:38.752Z,7.10
2019-01-16T07:34:36.396Z,6.80
2019-01-16T07:37:11.924Z,6.70
2019-01-16T07:39:57.688Z,6.80
2019-01-16T07:42:48.927Z,6.60
2019-01-16T07:45:36.079Z,6.50
2019-01-16T07:48:26.210Z,6.50
2019-01-16T07:51:11.196Z,6.50
2019-01-16T07:53:56.756Z,6.60
2019-01-16T07:56:32.752Z,6.50
2019-01-16T07:59:22.793Z,6.50
2019-01-16T08:02:09.908Z,6.50
2019-01-16T08:05:12.244Z,6.60
2019-01-16T08:07:59.462Z,6.70
2019-01-16T08:10:34.234Z,6.70
2019-01-16T08:13:20.225Z,6.60
2019-01-16T08:16:02.892Z,6.70
2019-01-16T08:18:45.190Z,6.80
2019-01-16T08:21:21.364Z,6.90
2019-01-16T08:24:26.404Z,7.00
2019-01-16T08:27:16.142Z,7.10
2019-01-16T08:30:09.417Z,7.20
2019-01-16T08:32:54.974Z,7.30
2019-01-16T08:35:40.436Z,7.30
2019-01-16T08:38:27.528Z,7.50
2019-01-16T08:41:17.664Z,7.40
2019-01-16T08:44:16.787Z,7.30
2019-01-16T08:47:03.481Z,7.30
2019-01-16T08:49:59.272Z,7.40
2019-01-16T08:52:49.285Z,7.40
2019-01-16T08:55:36.560Z,7.40
2019-01-16T08:58:22.925Z,7.40
2019-01-16T09:01:08.845Z,7.30
2019-01-16T09:03:54.628Z,7.40
2019-01-16T09:06:32.022Z,7.60
2019-01-16T09:09:19.264Z,7.80
2019-01-16T09:12:04.996Z,7.80
2019-01-16T09:14:50.800Z,7.80
2019-01-16T09:17:56.828Z,7.90
2019-01-16T09:20:40.119Z,8.00
2019-01-16T09:23:30.119Z,7.90
2019-01-16T09:26:29.251Z,7.80
2019-01-16T09:29:14.760Z,7.80
2019-01-16T09:32:00.576Z,7.80
2019-01-16T09:34:53.221Z,7.80
2019-01-16T09:37:40.400Z,7.80
2019-01-16T09:40:24.880Z,7.90
2019-01-16T09:43:18.597Z,8.10
2019-01-16T09:46:03.927Z,8.20
2019-01-16T09:48:42.071Z,8.30
2019-01-16T09:51:27.836Z,8.40
2019-01-16T09:54:14.973Z,8.40
2019-01-16T09:57:13.700Z,8.40
2019-01-16T09:59:59.212Z,8.50
2019-01-16T10:02:49.160Z,8.50
2019-01-16T10:05:34.808Z,8.60
2019-01-16T10:08:09.632Z,8.70
2019-01-16T10:11:02.760Z,8.50
2019-01-16T10:14:04.832Z,8.30
2019-01-16T10:16:45.360Z,8.40
2019-01-16T10:19:20.488Z,8.40
2019-01-16T10:22:06.019Z,8.40
2019-01-16T10:24:51.685Z,8.60
2019-01-16T10:27:37.215Z,8.80
2019-01-16T10:30:25.966Z,8.90
2019-01-16T10:33:14.122Z,9.00
2019-01-16T10:36:07.192Z,9.20
2019-01-16T10:39:12.253Z,9.40
2019-01-16T10:41:53.884Z,9.30
2019-01-16T10:44:39.484Z,9.20
2019-01-16T10:47:26.752Z,9.10
2019-01-16T10:50:04.315Z,9.00
2019-01-16T10:52:49.389Z,9.10
2019-01-16T10:55:40.092Z,9.10
2019-01-16T10:58:38.322Z,9.20
2019-01-16T11:01:26.064Z,9.30
2019-01-16T11:04:13.411Z,9.30
2019-01-16T11:07:12.820Z,9.40
2019-01-16T11:09:53.076Z,9.50
2019-01-16T11:12:40.215Z,9.50
2019-01-16T11:15:36.387Z,9.40
2019-01-16T11:18:31.395Z,9.40
2019-01-16T11:21:16.888Z,9.40
2019-01-16T11:24:22.252Z,9.30
2019-01-16T11:27:07.785Z,9.40
2019-01-16T11:29:50.054Z,9.40
2019-01-16T11:32:35.364Z,9.50
2019-01-16T11:35:28.891Z,9.70
2019-01-16T11:38:16.126Z,9.80
2019-01-16T11:41:15.521Z,9.60
2019-01-16T11:44:01.156Z,9.60
2019-01-16T11:46:48.310Z,9.50
2019-01-16T11:49:41.231Z,9.50
2019-01-16T11:52:31.725Z,9.40
2019-01-16T11:55:17.683Z,9.50
2019-01-16T11:58:16.736Z,9.60
2019-01-16T12:01:06.321Z,9.50
2019-01-16T12:03:51.819Z,9.50
2019-01-16T12:06:44.815Z,9.50
2019-01-16T12:09:52.337Z,9.50
2019-01-16T12:12:42.140Z,9.70
2019-01-16T12:15:27.457Z,9.60
2019-01-16T12:18:07.342Z,9.60
2019-01-16T12:20:57.228Z,9.60
2019-01-16T12:23:53.139Z,9.60
2019-01-16T12:26:38.517Z,9.50
2019-01-16T12:29:25.080Z,9.50
2019-01-16T12:32:15.516Z,9.50
2019-01-16T12:35:05.479Z,9.70
2019-01-16T12:37:51.016Z,9.80
2019-01-16T12:40:41.123Z,9.90
2019-01-16T12:43:23.723Z,9.90
2019-01-16T12:46:10.931Z,10.00
2019-01-16T12:49:07.116Z,10.10
2019-01-16T12:51:50.212Z,10.20
2019-01-16T12:54:35.823Z,10.30
2019-01-16T12:57:21.317Z,10.40
2019-01-16T13:00:09.864Z,10.40
2019-01-16T13:02:47.019Z,10.30
2019-01-16T13:05:32.676Z,10.20
2019-01-16T13:08:10.944Z,10.20
2019-01-16T13:11:01.127Z,10.10
2019-01-16T13:14:06.177Z,10.20
2019-01-16T13:16:45.531Z,10.40
2019-01-16T13:19:31.335Z,10.30
2019-01-16T13:22:21.241Z,10.20
2019-01-16T13:25:08.353Z,10.30
2019-01-16T13:27:57.864Z,10.40
2019-01-16T13:30:36.644Z,10.50
2019-01-16T13:33:33.217Z,10.60
2019-01-16T13:36:18.759Z,10.70
2019-01-16T13:39:08.724Z,10.70
2019-01-16T13:41:50.985Z,10.60
2019-01-16T13:44:47.027Z,10.60
2019-01-16T13:47:32.557Z,10.50
2019-01-16T13:50:18.258Z,10.60
2019-01-16T13:53:03.785Z,10.50
2019-01-16T13:55:49.268Z,10.40
2019-01-16T13:58:39.160Z,10.40
2019-01-16T14:01:30.699Z,10.40
2019-01-16T14:04:33.015Z,10.40
2019-01-16T14:07:38.408Z,10.30
2019-01-16T14:10:21.424Z,10.20
2019-01-16T14:13:24.127Z,10.10
2019-01-16T14:16:09.752Z,10.10
2019-01-16T14:18:57.175Z,10.00
2019-01-16T14:21:45.213Z,10.10
2019-01-16T14:24:30.781Z,10.10
2019-01-16T14:27:16.419Z,10.00
2019-01-16T14:29:52.677Z,10.10
2019-01-16T14:32:37.944Z,10.00
2019-01-16T14:35:28.417Z,9.90
2019-01-16T14:38:13.681Z,10.00
2019-01-16T14:41:03.406Z,10.00
2019-01-16T14:43:53.317Z,10.10
2019-01-16T14:46:38.841Z,10.20
2019-01-16T14:49:26.067Z,10.10
2019-01-16T14:52:11.319Z,10.00
2019-01-16T14:54:51.678Z,10.00
2019-01-16T14:57:38.844Z,9.90
2019-01-16T15:00:21.320Z,10.10
2019-01-16T15:03:06.693Z,9.90
2019-01-16T15:05:53.817Z,9.70
2019-01-16T15:09:00.039Z,9.70
2019-01-16T15:11:45.700Z,9.70
2019-01-16T15:14:23.824Z,9.70
2019-01-16T15:17:17.917Z,9.60
2019-01-16T15:20:07.892Z,9.40
2019-01-16T15:22:43.939Z,9.30
2019-01-16T15:25:37.083Z,9.20
2019-01-16T15:28:42.333Z,9.10
2019-01-16T15:31:29.500Z,9.10
2019-01-16T15:34:34.583Z,9.10
2019-01-16T15:37:27.841Z,9.00
2019-01-16T15:40:13.426Z,9.00
2019-01-16T15:43:09.452Z,9.00
2019-01-16T15:46:14.890Z,8.90
2019-01-16T15:49:20.976Z,8.80
2019-01-16T15:52:12.833Z,8.70
2019-01-16T15:55:04.752Z,8.70
2019-01-16T15:57:50.548Z,8.50
2019-01-16T16:00:38.488Z,8.50
2019-01-16T16:03:25.624Z,8.40
2019-01-16T16:06:16.981Z,8.20
2019-01-16T16:09:02.825Z,8.00
2019-01-16T16:12:03.456Z,8.00
2019-01-16T16:14:43.200Z,7.90
2019-01-16T16:17:30.768Z,7.80
2019-01-16T16:20:10.333Z,7.80
2019-01-16T16:22:57.433Z,7.80
2019-01-16T16:25:44.552Z,7.80
2019-01-16T16:28:37.680Z,7.80
2019-01-16T16:31:22.912Z,7.80
2019-01-16T16:34:08.629Z,7.50
2019-01-16T16:36:58.561Z,7.50
2019-01-16T16:40:00.317Z,7.40
2019-01-16T16:42:46.150Z,7.40
2019-01-16T16:45:24.328Z,7.30
2019-01-16T16:48:10.068Z,7.30
2019-01-16T16:51:09.093Z,7.30
2019-01-16T16:53:54.788Z,7.30
2019-01-16T16:56:45.839Z,7.30
2019-01-16T16:59:45.127Z,7.20
2019-01-16T17:02:41.125Z,7.10
2019-01-16T17:05:27.650Z,7.20
2019-01-16T17:08:04.426Z,7.10
2019-01-16T17:10:54.168Z,7.10
2019-01-16T17:13:48.990Z,7.10
2019-01-16T17:16:26.077Z,7.00
2019-01-16T17:19:31.184Z,7.00
2019-01-16T17:22:32.360Z,7.10
2019-01-16T17:25:25.889Z,7.00
2019-01-16T17:28:15.336Z,6.90
2019-01-16T17:31:01.152Z,6.90
2019-01-16T17:34:06.467Z,6.80
2019-01-16T17:36:52.175Z,6.80
2019-01-16T17:39:47.131Z,6.50
2019-01-16T17:42:36.783Z,6.50
2019-01-16T17:45:23.064Z,6.40
2019-01-16T17:48:13.751Z,6.40
2019-01-16T17:51:18.948Z,6.40
2019-01-16T17:54:18.011Z,6.40
2019-01-16T17:57:03.576Z,6.40
2019-01-16T17:59:50.700Z,6.20
2019-01-16T18:02:36.343Z,6.00
2019-01-16T18:05:11.946Z,5.90
2019-01-16T18:08:01.834Z,5.90
2019-01-16T18:10:47.565Z,6.00
2019-01-16T18:13:43.784Z,5.90
2019-01-16T18:16:29.457Z,5.80
2019-01-16T18:19:28.500Z,5.70
2019-01-16T18:22:14.883Z,5.60
2019-01-16T18:25:01.993Z,5.60
2019-01-16T18:27:38.766Z,5.60
2019-01-16T18:30:35.605Z,5.70
2019-01-16T18:33:31.918Z,5.70
2019-01-16T18:36:16.644Z,5.70
2019-01-16T18:39:11.976Z,5.60
2019-01-16T18:42:14.291Z,5.60
2019-01-16T18:45:00.200Z,5.60
2019-01-16T18:47:56.279Z,5.80
2019-01-16T18:50:37.560Z,5.80
2019-01-16T18:53:33.904Z,5.80
2019-01-16T18:56:35.948Z,5.80
2019-01-16T18:59:23.140Z,5.70
2019-01-16T19:02:13.050Z,5.70
2019-01-16T19:05:06.232Z,5.80
2019-01-16T19:07:56.103Z,5.70
2019-01-16T19:10:35.757Z,5.70
2019-01-16T19:13:16.976Z,5.80
2019-01-16T19:15:55.553Z,5.60
2019-01-16T19:18:46.572Z,5.70
2019-01-16T19:21:36.834Z,5.70
2019-01-16T19:24:24.000Z,5.60
2019-01-16T19:27:04.637Z,5.60
2019-01-16T19:29:45.942Z,5.50
2019-01-16T19:32:41.890Z,5.50
2019-01-16T19:35:27.589Z,5.50
2019-01-16T19:38:13.220Z,5.40
2019-01-16T19:41:09.324Z,5.40
2019-01-16T19:43:47.690Z,5.30
2019-01-16T19:46:53.041Z,5.30
2019-01-16T19:49:43.442Z,5.30
2019-01-16T19:52:25.573Z,5.30
2019-01-16T19:55:17.253Z,5.30
2019-01-16T19:58:12.141Z,5.30
2019-01-16T20:01:17.220Z,5.20
2019-01-16T20:04:02.533Z,5.20
2019-01-16T20:06:42.269Z,5.10
2019-01-16T20:09:27.877Z,5.10
2019-01-16T20:12:26.932Z,5.10
2019-01-16T20:15:22.013Z,5.10
2019-01-16T20:18:04.820Z,5.20
2019-01-16T20:20:52.400Z,5.30
2019-01-16T20:23:32.080Z,5.20
2019-01-16T20:26:12.772Z,5.30
2019-01-16T20:29:17.734Z,5.20
2019-01-16T20:32:10.692Z,5.20
2019-01-16T20:34:53.009Z,5.00
2019-01-16T20:37:51.972Z,5.00
2019-01-16T20:40:39.520Z,4.90
2019-01-16T20:43:21.900Z,4.90
2019-01-16T20:46:03.027Z,4.80
2019-01-16T20:48:48.636Z,4.70
2019-01-16T20:51:34.240Z,4.70
2019-01-16T20:54:17.801Z,4.70
2019-01-16T20:57:04.907Z,4.80
2019-01-16T21:00:10.004Z,4.90
2019-01-16T21:02:55.642Z,4.90
2019-01-16T21:05:39.194Z,4.90
2019-01-16T21:08:38.293Z,4.90
2019-01-16T21:11:23.044Z,5.00
2019-01-16T21:14:12.956Z,5.00
2019-01-16T21:17:03.131Z,5.00
2019-01-16T21:19:48.685Z,5.00
2019-01-16T21:22:42.208Z,4.90
2019-01-16T21:25:34.579Z,4.80
2019-01-16T21:28:22.989Z,4.80
2019-01-16T21:31:25.164Z,4.80
2019-01-16T21:34:18.754Z,4.80
2019-01-16T21:37:05.916Z,4.80
2019-01-16T21:39:51.243Z,4.80
2019-01-16T21:42:31.533Z,4.80
2019-01-16T21:45:18.692Z,4.80
2019-01-16T21:48:04.311Z,4.70
2019-01-16T21:50:49.909Z,4.70
2019-01-16T21:53:30.434Z,4.70
2019-01-16T21:56:13.668Z,4.80
2019-01-16T21:59:03.823Z,4.70
2019-01-16T22:01:47.765Z,4.90
2019-01-16T22:04:35.891Z,4.70
2019-01-16T22:07:26.064Z,4.80
2019-01-16T22:10:19.044Z,4.80
2019-01-16T22:13:18.464Z,4.80
2019-01-16T22:16:11.133Z,4.80
2019-01-16T22:18:56.424Z,4.80
2019-01-16T22:21:43.680Z,4.80
2019-01-16T22:24:46.071Z,4.90
2019-01-16T22:27:33.187Z,4.80
2019-01-16T22:30:26.280Z,4.90
2019-01-16T22:33:05.174Z,4.90
2019-01-16T22:35:42.499Z,4.90
2019-01-16T22:38:41.700Z,5.00
2019-01-16T22:41:22.713Z,5.10
2019-01-16T22:44:03.634Z,4.90
2019-01-16T22:46:47.943Z,4.90
2019-01-16T22:49:36.061Z,4.90
2019-01-16T22:52:29.113Z,5.00
2019-01-16T22:55:14.668Z,5.10
2019-01-16T22:57:54.568Z,5.10
2019-01-16T23:00:49.793Z,5.20
2019-01-16T23:03:40.176Z,5.20
2019-01-16T23:06:25.509Z,5.30
2019-01-16T23:08:59.240Z,5.30
2019-01-16T23:11:45.796Z,5.50
2019-01-16T23:14:31.389Z,5.60
2019-01-16T23:17:09.640Z,5.70
2019-01-16T23:19:57.360Z,5.70
2019-01-16T23:22:47.780Z,5.80
2019-01-16T23:25:25.315Z,6.10
2019-01-16T23:28:11.828Z,6.10
2019-01-16T23:31:01.481Z,6.00
2019-01-16T23:33:46.226Z,6.00
2019-01-16T23:36:39.156Z,6.10
2019-01-16T23:39:25.301Z,6.30
2019-01-16T23:42:15.336Z,6.50
2019-01-16T23:45:02.486Z,6.70
2019-01-16T23:47:49.348Z,7.00
2019-01-16T23:50:37.534Z,7.20
2019-01-16T23:53:16.068Z,7.40
2019-01-16T23:55:59.197Z,7.50
2019-01-16T23:58:36.668Z,7.70
